sensor_id;sensor_type;location;lat;lon;timestamp;temperature;humidity
52058;DHT22;38063;53.210;6.504;2023-08-24T00:01:10;15.30;99.90
52058;DHT22;38063;53.210;6.504;2023-08-24T00:03:38;15.30;99.90
52058;DHT22;38063;53.210;6.504;2023-08-24T00:06:03;15.20;99.90
52058;DHT22;38063;53.210;6.504;2023-08-24T00:08:30;15.20;99.90
52058;DHT22;38063;53.210;6.504;2023-08-24T00:10:55;15.20;99.90
52058;DHT22;38063;53.210;6.504;2023-08-24T00:13:21;15.10;99.90
52058;DHT22;38063;53.210;6.504;2023-08-24T00:15:47;15.10;99.90
52058;DHT22;38063;53.210;6.504;2023-08-24T00:18:12;15.20;99.90
52058;DHT22;38063;53.210;6.504;2023-08-24T00:20:38;15.10;99.90
52058;DHT22;38063;53.210;6.504;2023-08-24T00:23:04;15.00;99.90
52058;DHT22;38063;53.210;6.504;2023-08-24T00:25:30;15.10;99.90
52058;DHT22;38063;53.210;6.504;2023-08-24T00:27:56;15.00;99.90
52058;DHT22;38063;53.210;6.504;2023-08-24T00:30:23;15.00;99.90
52058;DHT22;38063;53.210;6.504;2023-08-24T00:32:49;15.00;99.90
52058;DHT22;38063;53.210;6.504;2023-08-24T00:35:15;15.00;99.90
52058;DHT22;38063;53.210;6.504;2023-08-24T00:37:41;15.00;99.90
52058;DHT22;38063;53.210;6.504;2023-08-24T00:40:07;14.90;99.90
52058;DHT22;38063;53.210;6.504;2023-08-24T00:42:40;15.00;99.90
52058;DHT22;38063;53.210;6.504;2023-08-24T00:45:07;15.00;99.90
52058;DHT22;38063;53.210;6.504;2023-08-24T00:47:35;15.00;99.90
52058;DHT22;38063;53.210;6.504;2023-08-24T00:50:01;15.00;99.90
52058;DHT22;38063;53.210;6.504;2023-08-24T00:52:30;15.00;99.90
52058;DHT22;38063;53.210;6.504;2023-08-24T00:54:57;15.00;99.90
52058;DHT22;38063;53.210;6.504;2023-08-24T00:57:23;15.00;99.90
52058;DHT22;38063;53.210;6.504;2023-08-24T00:59:49;15.00;99.90
52058;DHT22;38063;53.210;6.504;2023-08-24T01:02:14;15.10;99.90
52058;DHT22;38063;53.210;6.504;2023-08-24T01:04:43;15.00;99.90
52058;DHT22;38063;53.210;6.504;2023-08-24T01:07:10;15.10;99.90
52058;DHT22;38063;53.210;6.504;2023-08-24T01:09:36;15.10;99.90
52058;DHT22;38063;53.210;6.504;2023-08-24T01:15:03;15.00;99.90
52058;DHT22;38063;53.210;6.504;2023-08-24T01:17:30;15.00;99.90
52058;DHT22;38063;53.210;6.504;2023-08-24T01:19:58;15.00;99.90
52058;DHT22;38063;53.210;6.504;2023-08-24T01:25:15;15.10;99.90
52058;DHT22;38063;53.210;6.504;2023-08-24T01:27:42;15.10;99.90
52058;DHT22;38063;53.210;6.504;2023-08-24T01:30:08;15.10;99.90
52058;DHT22;38063;53.210;6.504;2023-08-24T01:32:35;15.10;99.90
52058;DHT22;38063;53.210;6.504;2023-08-24T01:35:08;15.10;99.90
52058;DHT22;38063;53.210;6.504;2023-08-24T01:37:35;15.10;99.90
52058;DHT22;38063;53.210;6.504;2023-08-24T01:40:10;15.10;99.90
52058;DHT22;38063;53.210;6.504;2023-08-24T01:45:19;15.10;99.90
52058;DHT22;38063;53.210;6.504;2023-08-24T01:47:48;15.10;99.90
52058;DHT22;38063;53.210;6.504;2023-08-24T01:50:14;15.10;99.90
52058;DHT22;38063;53.210;6.504;2023-08-24T01:52:41;15.00;99.90
52058;DHT22;38063;53.210;6.504;2023-08-24T01:55:07;15.10;99.90
52058;DHT22;38063;53.210;6.504;2023-08-24T01:57:33;15.10;99.90
52058;DHT22;38063;53.210;6.504;2023-08-24T01:59:59;15.10;99.90
52058;DHT22;38063;53.210;6.504;2023-08-24T02:02:25;15.20;99.90
52058;DHT22;38063;53.210;6.504;2023-08-24T02:04:50;15.20;99.90
52058;DHT22;38063;53.210;6.504;2023-08-24T02:07:16;15.20;99.90
52058;DHT22;38063;53.210;6.504;2023-08-24T02:09:42;15.20;99.90
52058;DHT22;38063;53.210;6.504;2023-08-24T02:12:07;15.20;99.90
52058;DHT22;38063;53.210;6.504;2023-08-24T02:14:33;15.30;99.90
52058;DHT22;38063;53.210;6.504;2023-08-24T02:16:59;15.30;99.90
52058;DHT22;38063;53.210;6.504;2023-08-24T02:19:24;15.30;99.90
52058;DHT22;38063;53.210;6.504;2023-08-24T02:21:50;15.40;99.90
52058;DHT22;38063;53.210;6.504;2023-08-24T02:24:16;15.40;99.90
52058;DHT22;38063;53.210;6.504;2023-08-24T02:26:41;15.30;99.90
52058;DHT22;38063;53.210;6.504;2023-08-24T02:29:07;15.30;99.90
52058;DHT22;38063;53.210;6.504;2023-08-24T02:31:33;15.30;99.90
52058;DHT22;38063;53.210;6.504;2023-08-24T02:33:58;15.40;99.90
52058;DHT22;38063;53.210;6.504;2023-08-24T02:36:24;15.40;99.90
52058;DHT22;38063;53.210;6.504;2023-08-24T02:38:49;15.40;99.90
52058;DHT22;38063;53.210;6.504;2023-08-24T02:41:15;15.50;99.90
52058;DHT22;38063;53.210;6.504;2023-08-24T02:43:41;15.50;99.90
52058;DHT22;38063;53.210;6.504;2023-08-24T02:46:08;15.50;99.90
52058;DHT22;38063;53.210;6.504;2023-08-24T02:48:35;15.60;99.90
52058;DHT22;38063;53.210;6.504;2023-08-24T02:51:02;15.60;99.90
52058;DHT22;38063;53.210;6.504;2023-08-24T02:53:29;15.60;99.90
52058;DHT22;38063;53.210;6.504;2023-08-24T02:55:57;15.60;99.90
52058;DHT22;38063;53.210;6.504;2023-08-24T02:58:23;15.70;99.90
52058;DHT22;38063;53.210;6.504;2023-08-24T03:00:49;15.60;99.90
52058;DHT22;38063;53.210;6.504;2023-08-24T03:03:15;15.70;99.90
52058;DHT22;38063;53.210;6.504;2023-08-24T03:05:41;15.70;99.90
52058;DHT22;38063;53.210;6.504;2023-08-24T03:08:16;15.70;99.90
52058;DHT22;38063;53.210;6.504;2023-08-24T03:10:41;15.70;99.90
52058;DHT22;38063;53.210;6.504;2023-08-24T03:13:07;15.70;99.90
52058;DHT22;38063;53.210;6.504;2023-08-24T03:15:35;15.70;99.90
52058;DHT22;38063;53.210;6.504;2023-08-24T03:18:00;15.80;99.90
52058;DHT22;38063;53.210;6.504;2023-08-24T03:20:26;15.70;99.90
52058;DHT22;38063;53.210;6.504;2023-08-24T03:22:52;15.70;99.90
52058;DHT22;38063;53.210;6.504;2023-08-24T03:25:17;15.70;99.90
52058;DHT22;38063;53.210;6.504;2023-08-24T03:27:43;15.70;99.90
52058;DHT22;38063;53.210;6.504;2023-08-24T03:30:09;15.70;99.90
52058;DHT22;38063;53.210;6.504;2023-08-24T03:32:34;15.70;99.90
52058;DHT22;38063;53.210;6.504;2023-08-24T03:35:00;15.60;99.90
52058;DHT22;38063;53.210;6.504;2023-08-24T03:37:27;15.60;99.90
52058;DHT22;38063;53.210;6.504;2023-08-24T03:39:53;15.60;99.90
52058;DHT22;38063;53.210;6.504;2023-08-24T03:42:19;15.60;99.90
52058;DHT22;38063;53.210;6.504;2023-08-24T03:44:44;15.60;99.90
52058;DHT22;38063;53.210;6.504;2023-08-24T03:47:10;15.60;99.90
52058;DHT22;38063;53.210;6.504;2023-08-24T03:49:35;15.60;99.90
52058;DHT22;38063;53.210;6.504;2023-08-24T03:52:01;15.60;99.90
52058;DHT22;38063;53.210;6.504;2023-08-24T03:54:28;15.60;99.90
52058;DHT22;38063;53.210;6.504;2023-08-24T03:56:54;15.70;99.90
52058;DHT22;38063;53.210;6.504;2023-08-24T03:59:19;15.60;99.90
52058;DHT22;38063;53.210;6.504;2023-08-24T04:01:45;15.60;99.90
52058;DHT22;38063;53.210;6.504;2023-08-24T04:04:11;15.60;99.90
52058;DHT22;38063;53.210;6.504;2023-08-24T04:06:37;15.60;99.90
52058;DHT22;38063;53.210;6.504;2023-08-24T04:09:03;15.60;99.90
52058;DHT22;38063;53.210;6.504;2023-08-24T04:11:29;15.70;99.90
52058;DHT22;38063;53.210;6.504;2023-08-24T04:13:54;15.60;99.90
52058;DHT22;38063;53.210;6.504;2023-08-24T04:16:20;15.60;99.90
52058;DHT22;38063;53.210;6.504;2023-08-24T04:18:46;15.60;99.90
52058;DHT22;38063;53.210;6.504;2023-08-24T04:21:11;15.60;99.90
52058;DHT22;38063;53.210;6.504;2023-08-24T04:23:37;15.60;99.90
52058;DHT22;38063;53.210;6.504;2023-08-24T04:26:02;15.60;99.90
52058;DHT22;38063;53.210;6.504;2023-08-24T04:28:30;15.50;99.90
52058;DHT22;38063;53.210;6.504;2023-08-24T04:30:56;15.60;99.90
52058;DHT22;38063;53.210;6.504;2023-08-24T04:33:24;15.50;99.90
52058;DHT22;38063;53.210;6.504;2023-08-24T04:35:50;15.50;99.90
52058;DHT22;38063;53.210;6.504;2023-08-24T04:38:16;15.50;99.90
52058;DHT22;38063;53.210;6.504;2023-08-24T04:40:50;15.50;99.90
52058;DHT22;38063;53.210;6.504;2023-08-24T04:43:20;15.50;99.90
52058;DHT22;38063;53.210;6.504;2023-08-24T04:45:51;15.50;99.90
52058;DHT22;38063;53.210;6.504;2023-08-24T04:48:20;15.50;99.90
52058;DHT22;38063;53.210;6.504;2023-08-24T04:50:46;15.50;99.90
52058;DHT22;38063;53.210;6.504;2023-08-24T04:53:13;15.50;99.90
52058;DHT22;38063;53.210;6.504;2023-08-24T04:55:40;15.50;99.90
52058;DHT22;38063;53.210;6.504;2023-08-24T04:58:07;15.40;99.90
52058;DHT22;38063;53.210;6.504;2023-08-24T05:00:33;15.40;99.90
52058;DHT22;38063;53.210;6.504;2023-08-24T05:02:59;15.50;99.90
52058;DHT22;38063;53.210;6.504;2023-08-24T05:05:24;15.40;99.90
52058;DHT22;38063;53.210;6.504;2023-08-24T05:07:50;15.40;99.90
52058;DHT22;38063;53.210;6.504;2023-08-24T05:10:16;15.40;99.90
52058;DHT22;38063;53.210;6.504;2023-08-24T05:12:41;15.40;99.90
52058;DHT22;38063;53.210;6.504;2023-08-24T05:15:07;15.50;99.90
52058;DHT22;38063;53.210;6.504;2023-08-24T05:17:33;15.50;99.90
52058;DHT22;38063;53.210;6.504;2023-08-24T05:19:59;15.50;99.90
52058;DHT22;38063;53.210;6.504;2023-08-24T05:22:25;15.60;99.90
52058;DHT22;38063;53.210;6.504;2023-08-24T05:24:50;15.50;99.90
52058;DHT22;38063;53.210;6.504;2023-08-24T05:27:16;15.50;99.90
52058;DHT22;38063;53.210;6.504;2023-08-24T05:29:42;15.50;99.90
52058;DHT22;38063;53.210;6.504;2023-08-24T05:32:08;15.50;99.90
52058;DHT22;38063;53.210;6.504;2023-08-24T05:34:34;15.60;99.90
52058;DHT22;38063;53.210;6.504;2023-08-24T05:36:59;15.60;99.90
52058;DHT22;38063;53.210;6.504;2023-08-24T05:39:25;15.60;99.90
52058;DHT22;38063;53.210;6.504;2023-08-24T05:41:51;15.60;99.90
52058;DHT22;38063;53.210;6.504;2023-08-24T05:44:18;15.70;99.90
52058;DHT22;38063;53.210;6.504;2023-08-24T05:46:45;15.70;99.90
52058;DHT22;38063;53.210;6.504;2023-08-24T05:49:11;15.70;99.90
52058;DHT22;38063;53.210;6.504;2023-08-24T05:51:37;15.80;99.90
52058;DHT22;38063;53.210;6.504;2023-08-24T05:54:02;15.80;99.90
52058;DHT22;38063;53.210;6.504;2023-08-24T05:56:28;16.10;99.90
52058;DHT22;38063;53.210;6.504;2023-08-24T05:58:55;15.90;99.90
52058;DHT22;38063;53.210;6.504;2023-08-24T06:01:20;15.90;99.90
52058;DHT22;38063;53.210;6.504;2023-08-24T06:03:46;15.90;99.90
52058;DHT22;38063;53.210;6.504;2023-08-24T06:06:12;16.00;99.90
52058;DHT22;38063;53.210;6.504;2023-08-24T06:08:37;16.00;99.90
52058;DHT22;38063;53.210;6.504;2023-08-24T06:11:03;16.10;99.90
52058;DHT22;38063;53.210;6.504;2023-08-24T06:13:29;16.10;99.90
52058;DHT22;38063;53.210;6.504;2023-08-24T06:15:55;16.20;99.90
52058;DHT22;38063;53.210;6.504;2023-08-24T06:18:20;16.20;99.90
52058;DHT22;38063;53.210;6.504;2023-08-24T06:20:46;16.30;99.90
52058;DHT22;38063;53.210;6.504;2023-08-24T06:23:16;16.40;99.90
52058;DHT22;38063;53.210;6.504;2023-08-24T06:25:42;16.50;99.90
52058;DHT22;38063;53.210;6.504;2023-08-24T06:28:08;16.60;99.90
52058;DHT22;38063;53.210;6.504;2023-08-24T06:30:41;16.70;99.90
52058;DHT22;38063;53.210;6.504;2023-08-24T06:33:09;16.90;99.90
52058;DHT22;38063;53.210;6.504;2023-08-24T06:35:36;17.20;99.90
52058;DHT22;38063;53.210;6.504;2023-08-24T06:38:03;17.40;99.90
52058;DHT22;38063;53.210;6.504;2023-08-24T06:40:29;17.60;99.90
52058;DHT22;38063;53.210;6.504;2023-08-24T06:42:56;17.70;99.90
52058;DHT22;38063;53.210;6.504;2023-08-24T06:45:21;17.90;99.90
52058;DHT22;38063;53.210;6.504;2023-08-24T06:47:47;18.10;99.90
52058;DHT22;38063;53.210;6.504;2023-08-24T06:50:13;18.20;99.90
52058;DHT22;38063;53.210;6.504;2023-08-24T06:52:41;18.40;99.90
52058;DHT22;38063;53.210;6.504;2023-08-24T06:55:08;18.60;99.90
52058;DHT22;38063;53.210;6.504;2023-08-24T06:57:34;18.70;99.90
52058;DHT22;38063;53.210;6.504;2023-08-24T06:59:59;18.90;99.90
52058;DHT22;38063;53.210;6.504;2023-08-24T07:02:26;19.00;99.90
52058;DHT22;38063;53.210;6.504;2023-08-24T07:04:51;19.20;99.90
52058;DHT22;38063;53.210;6.504;2023-08-24T07:07:17;19.40;99.90
52058;DHT22;38063;53.210;6.504;2023-08-24T07:09:42;19.60;99.90
52058;DHT22;38063;53.210;6.504;2023-08-24T07:12:09;19.80;99.90
52058;DHT22;38063;53.210;6.504;2023-08-24T07:14:38;19.90;99.90
52058;DHT22;38063;53.210;6.504;2023-08-24T07:17:06;20.00;99.90
52058;DHT22;38063;53.210;6.504;2023-08-24T07:19:32;20.20;99.90
52058;DHT22;38063;53.210;6.504;2023-08-24T07:21:58;20.40;99.90
52058;DHT22;38063;53.210;6.504;2023-08-24T07:24:23;20.50;99.90
52058;DHT22;38063;53.210;6.504;2023-08-24T07:26:54;20.70;99.90
52058;DHT22;38063;53.210;6.504;2023-08-24T07:29:20;20.80;99.90
52058;DHT22;38063;53.210;6.504;2023-08-24T07:31:47;21.00;99.90
52058;DHT22;38063;53.210;6.504;2023-08-24T07:34:12;21.10;99.90
52058;DHT22;38063;53.210;6.504;2023-08-24T07:36:38;21.20;99.90
52058;DHT22;38063;53.210;6.504;2023-08-24T07:39:04;21.40;99.90
52058;DHT22;38063;53.210;6.504;2023-08-24T07:41:30;21.50;99.90
52058;DHT22;38063;53.210;6.504;2023-08-24T07:43:55;21.60;99.90
52058;DHT22;38063;53.210;6.504;2023-08-24T07:46:21;21.80;99.90
52058;DHT22;38063;53.210;6.504;2023-08-24T07:48:47;21.90;99.90
52058;DHT22;38063;53.210;6.504;2023-08-24T07:51:12;22.10;99.90
52058;DHT22;38063;53.210;6.504;2023-08-24T07:53:38;22.20;99.90
52058;DHT22;38063;53.210;6.504;2023-08-24T07:56:04;22.30;99.90
52058;DHT22;38063;53.210;6.504;2023-08-24T07:58:30;22.40;99.90
52058;DHT22;38063;53.210;6.504;2023-08-24T08:00:58;22.50;99.90
52058;DHT22;38063;53.210;6.504;2023-08-24T08:03:24;22.60;99.90
52058;DHT22;38063;53.210;6.504;2023-08-24T08:05:50;22.80;99.90
52058;DHT22;38063;53.210;6.504;2023-08-24T08:08:16;22.90;99.90
52058;DHT22;38063;53.210;6.504;2023-08-24T08:10:42;23.00;99.90
52058;DHT22;38063;53.210;6.504;2023-08-24T08:13:08;23.20;99.90
52058;DHT22;38063;53.210;6.504;2023-08-24T08:15:36;23.30;99.90
52058;DHT22;38063;53.210;6.504;2023-08-24T08:18:04;23.40;99.90
52058;DHT22;38063;53.210;6.504;2023-08-24T08:20:30;23.60;99.90
52058;DHT22;38063;53.210;6.504;2023-08-24T08:22:56;23.80;99.90
52058;DHT22;38063;53.210;6.504;2023-08-24T08:25:22;23.90;99.90
52058;DHT22;38063;53.210;6.504;2023-08-24T08:27:49;24.10;99.90
52058;DHT22;38063;53.210;6.504;2023-08-24T08:30:15;24.30;99.90
52058;DHT22;38063;53.210;6.504;2023-08-24T08:32:41;24.50;99.90
52058;DHT22;38063;53.210;6.504;2023-08-24T08:35:08;24.60;99.90
52058;DHT22;38063;53.210;6.504;2023-08-24T08:37:34;24.70;99.90
52058;DHT22;38063;53.210;6.504;2023-08-24T08:40:02;24.90;99.90
52058;DHT22;38063;53.210;6.504;2023-08-24T08:42:31;25.10;99.90
52058;DHT22;38063;53.210;6.504;2023-08-24T08:44:57;25.20;99.90
52058;DHT22;38063;53.210;6.504;2023-08-24T08:47:25;25.30;99.90
52058;DHT22;38063;53.210;6.504;2023-08-24T08:49:51;25.50;99.90
52058;DHT22;38063;53.210;6.504;2023-08-24T08:52:17;25.60;99.90
52058;DHT22;38063;53.210;6.504;2023-08-24T08:54:43;25.70;99.90
52058;DHT22;38063;53.210;6.504;2023-08-24T08:57:10;25.80;99.90
52058;DHT22;38063;53.210;6.504;2023-08-24T08:59:35;25.80;99.90
52058;DHT22;38063;53.210;6.504;2023-08-24T09:02:02;25.70;99.90
52058;DHT22;38063;53.210;6.504;2023-08-24T09:04:32;25.50;99.90
52058;DHT22;38063;53.210;6.504;2023-08-24T09:06:58;25.30;99.90
52058;DHT22;38063;53.210;6.504;2023-08-24T09:09:29;25.10;99.90
52058;DHT22;38063;53.210;6.504;2023-08-24T09:11:54;24.90;99.90
52058;DHT22;38063;53.210;6.504;2023-08-24T09:14:20;24.80;99.90
52058;DHT22;38063;53.210;6.504;2023-08-24T09:16:46;24.70;99.90
52058;DHT22;38063;53.210;6.504;2023-08-24T09:19:12;24.70;99.90
52058;DHT22;38063;53.210;6.504;2023-08-24T09:21:38;24.80;99.90
52058;DHT22;38063;53.210;6.504;2023-08-24T09:24:06;24.80;99.90
52058;DHT22;38063;53.210;6.504;2023-08-24T09:26:34;24.90;99.90
52058;DHT22;38063;53.210;6.504;2023-08-24T09:29:10;24.90;99.90
52058;DHT22;38063;53.210;6.504;2023-08-24T09:31:38;24.90;99.90
52058;DHT22;38063;53.210;6.504;2023-08-24T09:34:04;24.90;99.90
52058;DHT22;38063;53.210;6.504;2023-08-24T09:36:32;24.90;99.90
52058;DHT22;38063;53.210;6.504;2023-08-24T09:38:59;24.90;99.90
52058;DHT22;38063;53.210;6.504;2023-08-24T09:41:37;24.80;99.90
52058;DHT22;38063;53.210;6.504;2023-08-24T09:44:04;24.70;99.90
52058;DHT22;38063;53.210;6.504;2023-08-24T09:46:29;24.60;99.90
52058;DHT22;38063;53.210;6.504;2023-08-24T09:48:55;24.60;99.90
52058;DHT22;38063;53.210;6.504;2023-08-24T09:51:26;24.50;99.90
52058;DHT22;38063;53.210;6.504;2023-08-24T09:53:53;24.50;99.90
52058;DHT22;38063;53.210;6.504;2023-08-24T09:56:22;24.40;99.90
52058;DHT22;38063;53.210;6.504;2023-08-24T09:58:49;24.40;99.90
52058;DHT22;38063;53.210;6.504;2023-08-24T10:01:17;24.30;99.90
52058;DHT22;38063;53.210;6.504;2023-08-24T10:03:44;24.30;99.90
52058;DHT22;38063;53.210;6.504;2023-08-24T10:06:10;24.20;99.90
52058;DHT22;38063;53.210;6.504;2023-08-24T10:08:43;24.20;99.90
52058;DHT22;38063;53.210;6.504;2023-08-24T10:11:14;24.10;99.90
52058;DHT22;38063;53.210;6.504;2023-08-24T10:13:56;24.00;99.90
52058;DHT22;38063;53.210;6.504;2023-08-24T10:16:24;23.90;99.90
52058;DHT22;38063;53.210;6.504;2023-08-24T10:18:52;23.80;99.90
52058;DHT22;38063;53.210;6.504;2023-08-24T10:21:19;23.80;99.90
52058;DHT22;38063;53.210;6.504;2023-08-24T10:23:45;23.80;99.90
52058;DHT22;38063;53.210;6.504;2023-08-24T10:26:12;23.70;99.90
52058;DHT22;38063;53.210;6.504;2023-08-24T10:28:39;23.70;99.90
52058;DHT22;38063;53.210;6.504;2023-08-24T10:31:05;23.60;99.90
52058;DHT22;38063;53.210;6.504;2023-08-24T10:33:32;23.50;99.90
52058;DHT22;38063;53.210;6.504;2023-08-24T10:35:59;23.50;99.90
52058;DHT22;38063;53.210;6.504;2023-08-24T10:38:29;23.40;99.90
52058;DHT22;38063;53.210;6.504;2023-08-24T10:41:02;23.40;99.90
52058;DHT22;38063;53.210;6.504;2023-08-24T10:43:29;23.30;99.90
52058;DHT22;38063;53.210;6.504;2023-08-24T10:46:01;23.30;99.90
52058;DHT22;38063;53.210;6.504;2023-08-24T10:48:45;23.20;99.90
52058;DHT22;38063;53.210;6.504;2023-08-24T10:53:55;23.10;99.90
52058;DHT22;38063;53.210;6.504;2023-08-24T10:56:23;23.10;99.90
52058;DHT22;38063;53.210;6.504;2023-08-24T10:59:10;23.00;99.90
52058;DHT22;38063;53.210;6.504;2023-08-24T11:01:54;23.00;99.90
52058;DHT22;38063;53.210;6.504;2023-08-24T11:04:20;22.90;99.90
52058;DHT22;38063;53.210;6.504;2023-08-24T11:06:56;22.90;99.90
52058;DHT22;38063;53.210;6.504;2023-08-24T11:09:23;22.90;99.90
52058;DHT22;38063;53.210;6.504;2023-08-24T11:11:59;22.80;99.90
52058;DHT22;38063;53.210;6.504;2023-08-24T11:14:25;22.80;99.90
52058;DHT22;38063;53.210;6.504;2023-08-24T11:16:52;22.80;99.90
52058;DHT22;38063;53.210;6.504;2023-08-24T11:19:18;22.80;99.90
52058;DHT22;38063;53.210;6.504;2023-08-24T11:21:45;22.70;99.90
52058;DHT22;38063;53.210;6.504;2023-08-24T11:24:15;22.60;99.90
52058;DHT22;38063;53.210;6.504;2023-08-24T11:26:46;22.70;99.90
52058;DHT22;38063;53.210;6.504;2023-08-24T11:29:12;22.60;99.90
52058;DHT22;38063;53.210;6.504;2023-08-24T11:31:38;22.60;99.90
52058;DHT22;38063;53.210;6.504;2023-08-24T11:34:04;22.60;99.90
52058;DHT22;38063;53.210;6.504;2023-08-24T11:36:31;22.60;99.90
52058;DHT22;38063;53.210;6.504;2023-08-24T11:38:58;22.60;99.90
52058;DHT22;38063;53.210;6.504;2023-08-24T11:41:25;22.60;99.90
52058;DHT22;38063;53.210;6.504;2023-08-24T11:43:59;22.60;99.90
52058;DHT22;38063;53.210;6.504;2023-08-24T11:46:24;22.60;99.90
52058;DHT22;38063;53.210;6.504;2023-08-24T11:48:50;22.70;99.90
52058;DHT22;38063;53.210;6.504;2023-08-24T11:51:17;22.80;99.90
52058;DHT22;38063;53.210;6.504;2023-08-24T11:53:43;22.80;99.90
52058;DHT22;38063;53.210;6.504;2023-08-24T11:56:13;22.90;99.90
52058;DHT22;38063;53.210;6.504;2023-08-24T11:58:43;23.00;99.90
52058;DHT22;38063;53.210;6.504;2023-08-24T12:01:10;23.00;99.90
52058;DHT22;38063;53.210;6.504;2023-08-24T12:03:37;23.00;99.90
52058;DHT22;38063;53.210;6.504;2023-08-24T12:06:11;23.10;99.90
52058;DHT22;38063;53.210;6.504;2023-08-24T12:08:39;23.20;99.90
52058;DHT22;38063;53.210;6.504;2023-08-24T12:11:10;23.20;99.90
52058;DHT22;38063;53.210;6.504;2023-08-24T12:13:36;23.20;99.90
52058;DHT22;38063;53.210;6.504;2023-08-24T12:16:02;23.20;99.90
52058;DHT22;38063;53.210;6.504;2023-08-24T12:18:30;23.20;99.90
52058;DHT22;38063;53.210;6.504;2023-08-24T12:20:59;23.20;99.90
52058;DHT22;38063;53.210;6.504;2023-08-24T12:23:27;23.20;99.90
52058;DHT22;38063;53.210;6.504;2023-08-24T12:25:54;23.20;99.90
52058;DHT22;38063;53.210;6.504;2023-08-24T12:28:20;23.20;99.90
52058;DHT22;38063;53.210;6.504;2023-08-24T12:30:49;23.20;99.90
52058;DHT22;38063;53.210;6.504;2023-08-24T12:33:25;23.20;99.90
52058;DHT22;38063;53.210;6.504;2023-08-24T12:35:51;23.20;99.90
52058;DHT22;38063;53.210;6.504;2023-08-24T12:38:17;23.10;99.90
52058;DHT22;38063;53.210;6.504;2023-08-24T12:40:43;23.10;99.90
52058;DHT22;38063;53.210;6.504;2023-08-24T12:43:09;23.20;99.90
52058;DHT22;38063;53.210;6.504;2023-08-24T12:45:34;23.20;99.90
52058;DHT22;38063;53.210;6.504;2023-08-24T12:48:01;23.20;99.90
52058;DHT22;38063;53.210;6.504;2023-08-24T12:50:27;23.20;99.90
52058;DHT22;38063;53.210;6.504;2023-08-24T12:52:53;23.30;99.90
52058;DHT22;38063;53.210;6.504;2023-08-24T12:55:21;23.30;99.90
52058;DHT22;38063;53.210;6.504;2023-08-24T12:57:47;23.30;99.90
52058;DHT22;38063;53.210;6.504;2023-08-24T13:00:14;23.40;99.90
52058;DHT22;38063;53.210;6.504;2023-08-24T13:02:40;23.40;99.90
52058;DHT22;38063;53.210;6.504;2023-08-24T13:05:06;23.40;99.90
52058;DHT22;38063;53.210;6.504;2023-08-24T13:07:32;23.40;99.90
52058;DHT22;38063;53.210;6.504;2023-08-24T13:09:57;23.40;99.90
52058;DHT22;38063;53.210;6.504;2023-08-24T13:12:23;23.40;99.90
52058;DHT22;38063;53.210;6.504;2023-08-24T13:14:49;23.30;99.90
52058;DHT22;38063;53.210;6.504;2023-08-24T13:17:15;23.30;99.90
52058;DHT22;38063;53.210;6.504;2023-08-24T13:19:41;23.30;99.90
52058;DHT22;38063;53.210;6.504;2023-08-24T13:22:06;23.30;99.90
52058;DHT22;38063;53.210;6.504;2023-08-24T13:24:34;23.20;99.90
52058;DHT22;38063;53.210;6.504;2023-08-24T13:26:59;23.20;99.90
52058;DHT22;38063;53.210;6.504;2023-08-24T13:29:25;23.20;99.90
52058;DHT22;38063;53.210;6.504;2023-08-24T13:31:51;23.20;99.90
52058;DHT22;38063;53.210;6.504;2023-08-24T13:34:17;23.20;99.90
52058;DHT22;38063;53.210;6.504;2023-08-24T13:36:43;23.20;99.90
52058;DHT22;38063;53.210;6.504;2023-08-24T13:39:09;23.20;99.90
52058;DHT22;38063;53.210;6.504;2023-08-24T13:41:36;23.20;99.90
52058;DHT22;38063;53.210;6.504;2023-08-24T13:44:02;23.20;99.90
52058;DHT22;38063;53.210;6.504;2023-08-24T13:46:28;23.20;99.90
52058;DHT22;38063;53.210;6.504;2023-08-24T13:48:53;23.20;99.90
52058;DHT22;38063;53.210;6.504;2023-08-24T13:51:19;23.20;99.90
52058;DHT22;38063;53.210;6.504;2023-08-24T13:53:45;23.20;99.90
52058;DHT22;38063;53.210;6.504;2023-08-24T13:56:10;23.20;99.90
52058;DHT22;38063;53.210;6.504;2023-08-24T13:58:36;23.20;99.90
52058;DHT22;38063;53.210;6.504;2023-08-24T14:01:02;23.20;99.90
52058;DHT22;38063;53.210;6.504;2023-08-24T14:03:28;23.20;99.90
52058;DHT22;38063;53.210;6.504;2023-08-24T14:05:57;23.20;99.90
52058;DHT22;38063;53.210;6.504;2023-08-24T14:08:23;23.30;99.90
52058;DHT22;38063;53.210;6.504;2023-08-24T14:10:49;23.30;99.90
52058;DHT22;38063;53.210;6.504;2023-08-24T14:13:15;23.30;99.90
52058;DHT22;38063;53.210;6.504;2023-08-24T14:15:41;23.30;99.90
52058;DHT22;38063;53.210;6.504;2023-08-24T14:18:11;23.30;99.90
52058;DHT22;38063;53.210;6.504;2023-08-24T14:20:38;23.30;99.90
52058;DHT22;38063;53.210;6.504;2023-08-24T14:23:04;23.30;99.90
52058;DHT22;38063;53.210;6.504;2023-08-24T14:25:29;23.30;99.90
52058;DHT22;38063;53.210;6.504;2023-08-24T14:27:55;23.20;99.90
52058;DHT22;38063;53.210;6.504;2023-08-24T14:30:21;23.20;99.90
52058;DHT22;38063;53.210;6.504;2023-08-24T14:32:46;23.20;99.90
52058;DHT22;38063;53.210;6.504;2023-08-24T14:35:12;23.00;99.90
52058;DHT22;38063;53.210;6.504;2023-08-24T14:37:38;23.00;99.90
52058;DHT22;38063;53.210;6.504;2023-08-24T14:40:05;23.00;99.90
52058;DHT22;38063;53.210;6.504;2023-08-24T14:42:31;23.00;99.90
52058;DHT22;38063;53.210;6.504;2023-08-24T14:44:57;23.00;99.90
52058;DHT22;38063;53.210;6.504;2023-08-24T14:47:23;23.00;99.90
52058;DHT22;38063;53.210;6.504;2023-08-24T14:49:49;22.90;99.90
52058;DHT22;38063;53.210;6.504;2023-08-24T14:52:14;23.00;99.90
52058;DHT22;38063;53.210;6.504;2023-08-24T14:54:40;23.00;99.90
52058;DHT22;38063;53.210;6.504;2023-08-24T14:57:06;23.00;99.90
52058;DHT22;38063;53.210;6.504;2023-08-24T14:59:32;23.00;99.90
52058;DHT22;38063;53.210;6.504;2023-08-24T15:01:58;23.00;99.90
52058;DHT22;38063;53.210;6.504;2023-08-24T15:04:27;23.00;99.90
52058;DHT22;38063;53.210;6.504;2023-08-24T15:06:52;23.00;99.90
52058;DHT22;38063;53.210;6.504;2023-08-24T15:09:18;23.00;99.90
52058;DHT22;38063;53.210;6.504;2023-08-24T15:11:44;23.00;99.90
52058;DHT22;38063;53.210;6.504;2023-08-24T15:14:11;23.00;99.90
52058;DHT22;38063;53.210;6.504;2023-08-24T15:16:36;23.00;99.90
52058;DHT22;38063;53.210;6.504;2023-08-24T15:19:02;23.00;99.90
52058;DHT22;38063;53.210;6.504;2023-08-24T15:21:28;23.00;99.90
52058;DHT22;38063;53.210;6.504;2023-08-24T15:23:54;23.00;99.90
52058;DHT22;38063;53.210;6.504;2023-08-24T15:26:20;23.00;99.90
52058;DHT22;38063;53.210;6.504;2023-08-24T15:31:33;23.10;99.90
52058;DHT22;38063;53.210;6.504;2023-08-24T15:33:59;23.10;99.90
52058;DHT22;38063;53.210;6.504;2023-08-24T15:36:24;23.10;99.90
52058;DHT22;38063;53.210;6.504;2023-08-24T15:38:50;23.10;99.90
52058;DHT22;38063;53.210;6.504;2023-08-24T15:41:16;23.20;99.90